Time;durP1;ratioP1;P1;durP2;ratioP2;P2;SDS_P1;SDS_P2;PMS_P1;PMS_P2;Temp;Humidity;BMP_temperature;BMP_pressure;BME280_temperature;BME280_humidity;BME280_pressure;Samples;Min_cycle;Max_cycle;Signal;HPM_P1;HPM_P2
2022/06/21 00:02:20;;;;;;;2.85;1.33;;;;;;;;;;5120724;28;20027;-68
2022/06/21 00:05:09;;;;;;;3.75;1.65;;;;;;;;;;5122667;28;20096;-68
2022/06/21 00:07:56;;;;;;;1.90;1.50;;;;;;;;;;5128879;28;20076;-68
2022/06/21 00:10:42;;;;;;;1.48;1.30;;;;;;;;;;5129223;28;20092;-69
2022/06/21 00:13:29;;;;;;;3.47;1.23;;;;;;;;;;5107945;28;20036;-68
2022/06/21 00:16:15;;;;;;;3.20;1.83;;;;;;;;;;5125723;28;20023;-70
2022/06/21 00:19:02;;;;;;;2.95;1.50;;;;;;;;;;5133438;27;20019;-69
2022/06/21 00:21:48;;;;;;;1.45;1.27;;;;;;;;;;5109042;28;20016;-68
2022/06/21 00:24:34;;;;;;;2.53;1.45;;;;;;;;;;5126474;27;20038;-69
2022/06/21 00:27:20;;;;;;;1.60;1.30;;;;;;;;;;5123277;27;20035;-70
2022/06/21 00:30:06;;;;;;;3.30;1.08;;;;;;;;;;5128687;27;20031;-69
2022/06/21 00:32:53;;;;;;;2.67;1.20;;;;;;;;;;5128635;27;20087;-68
2022/06/21 00:35:41;;;;;;;2.33;1.50;;;;;;;;;;5133920;27;20372;-68
2022/06/21 00:38:28;;;;;;;2.47;1.70;;;;;;;;;;5128904;27;20118;-68
2022/06/21 00:41:15;;;;;;;1.40;1.30;;;;;;;;;;5103580;27;20496;-68
2022/06/21 00:44:02;;;;;;;1.52;1.20;;;;;;;;;;5131890;27;20091;-68
2022/06/21 00:46:51;;;;;;;2.25;1.95;;;;;;;;;;5123930;27;20027;-68
2022/06/21 00:49:44;;;;;;;4.72;1.60;;;;;;;;;;5132233;27;20598;-69
2022/06/21 00:52:39;;;;;;;5.00;1.30;;;;;;;;;;5128511;27;20029;-70
2022/06/21 00:55:31;;;;;;;2.97;1.63;;;;;;;;;;5131469;27;20031;-70
2022/06/21 00:58:18;;;;;;;4.40;1.60;;;;;;;;;;5123575;27;20036;-70
2022/06/21 01:01:07;;;;;;;2.63;1.85;;;;;;;;;;5125258;27;20055;-71
2022/06/21 01:04:01;;;;;;;3.33;1.65;;;;;;;;;;5128613;27;20461;-71
2022/06/21 01:06:47;;;;;;;3.13;1.58;;;;;;;;;;5110874;27;20209;-70
2022/06/21 01:09:41;;;;;;;7.80;1.70;;;;;;;;;;5122900;27;20027;-69
2022/06/21 01:12:30;;;;;;;6.03;1.67;;;;;;;;;;5129244;27;20099;-69
2022/06/21 01:15:18;;;;;;;2.25;1.60;;;;;;;;;;5125011;27;20038;-70
2022/06/21 01:18:04;;;;;;;3.58;1.70;;;;;;;;;;5129918;27;20080;-73
2022/06/21 01:20:53;;;;;;;3.03;1.58;;;;;;;;;;5122616;27;20019;-71
2022/06/21 01:23:57;;;;;;;3.67;1.52;;;;;;;;;;5132780;27;20147;-69
2022/06/21 01:26:43;;;;;;;2.75;1.60;;;;;;;;;;5127394;27;20473;-71
2022/06/21 01:29:30;;;;;;;5.03;1.58;;;;;;;;;;5124776;27;20034;-67
2022/06/21 01:32:16;;;;;;;2.45;2.25;;;;;;;;;;5134608;27;20014;-68
2022/06/21 01:35:07;;;;;;;2.88;1.67;;;;;;;;;;5132055;27;20034;-66
2022/06/21 01:37:54;;;;;;;4.82;1.60;;;;;;;;;;5122416;27;20031;-66
2022/06/21 01:40:42;;;;;;;3.40;1.50;;;;;;;;;;5130153;27;20108;-65
2022/06/21 01:43:28;;;;;;;2.42;1.50;;;;;;;;;;5121751;27;20035;-65
2022/06/21 01:46:16;;;;;;;3.17;1.45;;;;;;;;;;5128363;27;20034;-67
2022/06/21 01:49:07;;;;;;;4.00;1.52;;;;;;;;;;5128764;27;20075;-64
2022/06/21 01:52:02;;;;;;;7.93;1.95;;;;;;;;;;5124954;27;21290;-64
2022/06/21 01:54:58;;;;;;;3.25;1.55;;;;;;;;;;5129168;27;20026;-64
2022/06/21 01:57:44;;;;;;;3.00;1.77;;;;;;;;;;5130129;27;20077;-66
2022/06/21 02:00:31;;;;;;;5.55;1.55;;;;;;;;;;5125613;27;20027;-64
2022/06/21 02:03:18;;;;;;;4.32;1.30;;;;;;;;;;5130260;27;20025;-64
2022/06/21 02:06:07;;;;;;;1.92;1.33;;;;;;;;;;5132403;27;20019;-64
2022/06/21 02:08:54;;;;;;;2.50;1.40;;;;;;;;;;5130770;27;20198;-63
2022/06/21 02:11:44;;;;;;;2.95;1.50;;;;;;;;;;5126522;27;20028;-63
2022/06/21 02:14:33;;;;;;;3.95;1.58;;;;;;;;;;5113450;27;20035;-64
2022/06/21 02:17:22;;;;;;;3.42;1.58;;;;;;;;;;5125032;27;20035;-64
2022/06/21 02:20:19;;;;;;;10.55;2.15;;;;;;;;;;5127082;27;20465;-63
2022/06/21 02:23:05;;;;;;;3.53;1.63;;;;;;;;;;5130502;27;20031;-63
2022/06/21 02:25:52;;;;;;;2.72;1.63;;;;;;;;;;5124426;27;20481;-66
2022/06/21 02:28:38;;;;;;;2.92;1.67;;;;;;;;;;5126158;27;20023;-66
2022/06/21 02:31:24;;;;;;;4.75;2.28;;;;;;;;;;5125564;27;20023;-67
2022/06/21 02:34:15;;;;;;;2.47;1.30;;;;;;;;;;5131099;27;20026;-67
2022/06/21 02:37:01;;;;;;;2.17;1.63;;;;;;;;;;5131888;27;20127;-66
2022/06/21 02:39:47;;;;;;;1.95;1.30;;;;;;;;;;5130045;27;20072;-70
2022/06/21 02:42:35;;;;;;;1.58;1.45;;;;;;;;;;5118325;27;20039;-67
2022/06/21 02:45:24;;;;;;;3.10;1.25;;;;;;;;;;5125848;27;20045;-67
2022/06/21 02:48:12;;;;;;;1.50;1.40;;;;;;;;;;5116278;27;20112;-64
2022/06/21 02:51:01;;;;;;;3.10;1.60;;;;;;;;;;5129348;27;20116;-63
2022/06/21 02:54:09;;;;;;;2.93;1.40;;;;;;;;;;5129583;27;20027;-64
2022/06/21 02:56:58;;;;;;;6.97;1.70;;;;;;;;;;5121992;27;20030;-63
2022/06/21 02:59:45;;;;;;;3.35;1.58;;;;;;;;;;5127507;27;20485;-64
2022/06/21 03:02:32;;;;;;;1.50;1.40;;;;;;;;;;5123012;27;20298;-63
2022/06/21 03:05:20;;;;;;;2.95;1.27;;;;;;;;;;5122767;27;20023;-65
2022/06/21 03:08:06;;;;;;;2.15;1.67;;;;;;;;;;5122293;27;20096;-64
2022/06/21 03:10:52;;;;;;;2.65;1.30;;;;;;;;;;5129874;27;20023;-64
2022/06/21 03:13:38;;;;;;;3.45;1.42;;;;;;;;;;5116971;28;20492;-63
2022/06/21 03:16:23;;;;;;;2.72;1.50;;;;;;;;;;5130464;28;20072;-69
2022/06/21 03:19:35;;;;;;;2.88;1.60;;;;;;;;;;5123042;28;20028;-69
2022/06/21 03:22:25;;;;;;;2.90;1.60;;;;;;;;;;5117851;28;20118;-69
2022/06/21 03:25:19;;;;;;;3.28;1.58;;;;;;;;;;5126901;28;20100;-69
2022/06/21 03:28:23;;;;;;;4.93;1.73;;;;;;;;;;5125138;28;20028;-68
2022/06/21 03:31:24;;;;;;;1.50;1.40;;;;;;;;;;5122422;28;20030;-68
2022/06/21 03:34:12;;;;;;;3.30;1.73;;;;;;;;;;5119769;28;20078;-68
2022/06/21 03:36:59;;;;;;;14.65;1.70;;;;;;;;;;5121747;28;20035;-66
2022/06/21 03:42:52;;;;;;;2.75;1.73;;;;;;;;;;5129797;28;20050;-67
2022/06/21 03:45:40;;;;;;;2.55;1.55;;;;;;;;;;5128603;28;20031;-67
2022/06/21 03:48:33;;;;;;;2.25;1.70;;;;;;;;;;5122847;28;20060;-68
2022/06/21 03:51:22;;;;;;;2.65;1.60;;;;;;;;;;5116106;28;20028;-67
2022/06/21 03:54:20;;;;;;;2.65;1.92;;;;;;;;;;5126228;27;20394;-67
2022/06/21 03:57:08;;;;;;;3.00;1.90;;;;;;;;;;5124102;27;20039;-64
2022/06/21 03:59:58;;;;;;;7.85;1.90;;;;;;;;;;5129009;27;20377;-66
2022/06/21 04:02:43;;;;;;;;;;;;;;;;;;5127357;27;20016;-63
2022/06/21 04:05:35;;;;;;;2.85;1.60;;;;;;;;;;5131978;27;19911;-63
2022/06/21 04:08:28;;;;;;;2.13;1.67;;;;;;;;;;5122910;27;20402;-63
2022/06/21 04:11:16;;;;;;;1.80;1.40;;;;;;;;;;5122881;27;20411;-62
2022/06/21 04:14:18;;;;;;;2.88;1.40;;;;;;;;;;5124258;27;20053;-67
2022/06/21 04:17:17;;;;;;;2.42;1.50;;;;;;;;;;5122397;27;20106;-65
2022/06/21 04:20:12;;;;;;;3.78;1.80;;;;;;;;;;5131233;27;20374;-64
2022/06/21 04:23:03;;;;;;;2.78;1.67;;;;;;;;;;5127522;27;20106;-67
2022/06/21 04:25:52;;;;;;;3.55;1.70;;;;;;;;;;5120307;27;20016;-64
2022/06/21 04:28:41;;;;;;;4.43;1.70;;;;;;;;;;5120859;27;20019;-65
2022/06/21 04:31:27;;;;;;;;;;;;;;;;;;5122818;27;20036;-70
2022/06/21 04:34:17;;;;;;;3.58;1.92;;;;;;;;;;5115658;27;19957;-68
2022/06/21 04:37:12;;;;;;;2.70;1.70;;;;;;;;;;5131049;27;20373;-69
2022/06/21 04:40:01;;;;;;;4.25;1.67;;;;;;;;;;5131506;27;20027;-70
2022/06/21 04:42:46;;;;;;;2.53;1.20;;;;;;;;;;5122693;27;20127;-68
2022/06/21 04:45:45;;;;;;;2.38;1.40;;;;;;;;;;5122538;27;20118;-67
2022/06/21 04:48:38;;;;;;;2.95;1.55;;;;;;;;;;5128609;27;20038;-69
2022/06/21 04:51:23;;;;;;;2.35;1.50;;;;;;;;;;5128555;27;20057;-65
2022/06/21 04:54:16;;;;;;;2.97;1.80;;;;;;;;;;5122078;27;20088;-69
2022/06/21 04:57:16;;;;;;;3.03;2.03;;;;;;;;;;5125182;27;20023;-69
2022/06/21 05:00:05;;;;;;;2.45;1.88;;;;;;;;;;5125140;27;20350;-69
2022/06/21 05:02:59;;;;;;;5.32;1.98;;;;;;;;;;5131052;27;20047;-69
2022/06/21 05:05:45;;;;;;;4.85;2.00;;;;;;;;;;5124354;27;20026;-69
2022/06/21 05:08:31;;;;;;;2.15;1.60;;;;;;;;;;5124323;27;20577;-67
2022/06/21 05:11:17;;;;;;;4.70;2.38;;;;;;;;;;5125745;22;20049;-71
2022/06/21 05:14:03;;;;;;;6.00;2.10;;;;;;;;;;5071299;28;20097;-70
2022/06/21 05:16:50;;;;;;;5.50;1.83;;;;;;;;;;5044650;28;20092;-71
2022/06/21 05:19:38;;;;;;;4.82;1.90;;;;;;;;;;5064116;28;20033;-70
2022/06/21 05:22:32;;;;;;;6.22;1.98;;;;;;;;;;5063042;28;20032;-71
2022/06/21 05:25:30;;;;;;;3.55;2.15;;;;;;;;;;5072388;28;20024;-72
2022/06/21 05:28:25;;;;;;;3.30;1.70;;;;;;;;;;5066529;28;20047;-72
2022/06/21 05:31:14;;;;;;;2.78;1.70;;;;;;;;;;5066632;28;20025;-69
2022/06/21 05:34:01;;;;;;;6.43;2.30;;;;;;;;;;5053831;28;20029;-69
2022/06/21 05:36:51;;;;;;;2.17;1.63;;;;;;;;;;5046129;28;20048;-67
2022/06/21 05:39:40;;;;;;;5.75;1.85;;;;;;;;;;5048172;28;20064;-67
2022/06/21 05:42:26;;;;;;;;;;;;;;;;;;5039560;28;20472;-67
2022/06/21 05:45:14;;;;;;;3.13;1.98;;;;;;;;;;5048317;28;19923;-57
2022/06/21 05:48:01;;;;;;;3.80;2.00;;;;;;;;;;5040673;28;20083;-57
2022/06/21 05:50:47;;;;;;;4.80;1.83;;;;;;;;;;5030846;28;20024;-57
2022/06/21 05:53:39;;;;;;;4.95;2.00;;;;;;;;;;5043375;28;20025;-59
2022/06/21 05:56:26;;;;;;;5.18;1.80;;;;;;;;;;5055888;28;20077;-60
2022/06/21 05:59:14;;;;;;;4.50;2.03;;;;;;;;;;5048107;28;20029;-57
2022/06/21 06:02:03;;;;;;;3.42;1.75;;;;;;;;;;5049638;28;20025;-67
2022/06/21 06:04:48;;;;;;;;;;;;;;;;;;5049595;28;20032;-76
2022/06/21 06:07:36;;;;;;;5.30;2.00;;;;;;;;;;5046402;28;19913;-80
2022/06/21 06:10:23;;;;;;;7.40;2.10;;;;;;;;;;5044272;28;20025;-76
2022/06/21 06:13:12;;;;;;;7.43;2.88;;;;;;;;;;5046202;28;20040;-75
2022/06/21 06:16:04;;;;;;;6.13;1.98;;;;;;;;;;5051064;28;20036;-75
2022/06/21 06:18:57;;;;;;;3.85;1.90;;;;;;;;;;5047964;28;20044;-75
2022/06/21 06:21:45;;;;;;;4.78;1.98;;;;;;;;;;5046768;28;20043;-70
2022/06/21 06:24:36;;;;;;;6.97;1.73;;;;;;;;;;5053240;28;20032;-71
2022/06/21 06:27:24;;;;;;;8.48;1.92;;;;;;;;;;5042003;28;20025;-74
2022/06/21 06:30:12;;;;;;;5.22;1.58;;;;;;;;;;5040209;28;20018;-73
2022/06/21 06:33:12;;;;;;;8.23;2.72;;;;;;;;;;5045869;28;20578;-72
2022/06/21 06:36:01;;;;;;;5.18;1.90;;;;;;;;;;5034755;28;20036;-73
2022/06/21 06:38:46;;;;;;;7.85;2.10;;;;;;;;;;5047725;28;20063;-73
2022/06/21 06:41:35;;;;;;;4.35;1.90;;;;;;;;;;5037775;28;20037;-75
2022/06/21 06:44:24;;;;;;;3.50;1.92;;;;;;;;;;5034111;28;20029;-67
2022/06/21 06:47:13;;;;;;;6.97;2.17;;;;;;;;;;5031358;28;20083;-70
2022/06/21 06:49:58;;;;;;;;;;;;;;;;;;5042545;28;20399;-70
2022/06/21 06:52:50;;;;;;;4.90;1.65;;;;;;;;;;5041267;28;19913;-75
2022/06/21 06:55:46;;;;;;;2.75;1.70;;;;;;;;;;5049857;28;20033;-71
2022/06/21 06:58:35;;;;;;;5.55;1.67;;;;;;;;;;5043956;28;20068;-76
2022/06/21 07:01:23;;;;;;;4.55;1.60;;;;;;;;;;5040733;28;20035;-71
2022/06/21 07:04:10;;;;;;;4.28;1.73;;;;;;;;;;5020095;28;20033;-77
2022/06/21 07:06:59;;;;;;;4.57;1.63;;;;;;;;;;5050158;28;20029;-72
2022/06/21 07:09:47;;;;;;;3.83;1.70;;;;;;;;;;5049275;28;20029;-71
2022/06/21 07:12:33;;;;;;;2.87;1.90;;;;;;;;;;5041652;28;20135;-68
2022/06/21 07:15:21;;;;;;;5.60;1.92;;;;;;;;;;5045295;28;20282;-69
2022/06/21 07:18:23;;;;;;;2.65;1.73;;;;;;;;;;5048991;28;20033;-70
2022/06/21 07:21:09;;;;;;;2.40;1.77;;;;;;;;;;5045068;28;20045;-77
2022/06/21 07:23:58;;;;;;;4.45;1.95;;;;;;;;;;5052553;28;20570;-79
2022/06/21 07:26:47;;;;;;;5.13;1.90;;;;;;;;;;5045342;28;20107;-78
2022/06/21 07:29:35;;;;;;;4.05;1.75;;;;;;;;;;5031661;28;20129;-77
2022/06/21 07:32:23;;;;;;;3.40;1.63;;;;;;;;;;5050756;28;20040;-78
2022/06/21 07:35:12;;;;;;;4.60;2.00;;;;;;;;;;5043501;28;20026;-78
2022/06/21 07:38:17;;;;;;;6.13;2.13;;;;;;;;;;5044961;28;20297;-75
2022/06/21 07:41:16;;;;;;;5.47;2.33;;;;;;;;;;5048703;28;20033;-78
2022/06/21 07:44:01;;;;;;;;;;;;;;;;;;5021981;28;20104;-77
2022/06/21 07:46:51;;;;;;;3.90;2.15;;;;;;;;;;5047189;28;20342;-77
2022/06/21 07:50:03;;;;;;;6.38;1.90;;;;;;;;;;5044559;28;20048;-75
2022/06/21 07:52:59;;;;;;;4.05;2.00;;;;;;;;;;5051061;28;20028;-77
2022/06/21 07:55:48;;;;;;;4.13;1.92;;;;;;;;;;5050208;28;20025;-68
2022/06/21 07:58:38;;;;;;;6.47;2.20;;;;;;;;;;5052752;28;20029;-75
2022/06/21 08:07:51;;;;;;;5.93;1.98;;;;;;;;;;5049879;28;20025;-74
2022/06/21 08:10:53;;;;;;;4.25;1.92;;;;;;;;;;5030083;28;20104;-73
2022/06/21 08:13:40;;;;;;;5.68;2.22;;;;;;;;;;5049941;28;20033;-72
2022/06/21 08:16:28;;;;;;;3.95;1.60;;;;;;;;;;5037731;28;20037;-73
2022/06/21 08:19:26;;;;;;;3.38;1.80;;;;;;;;;;5049723;28;20036;-81
2022/06/21 08:22:17;;;;;;;8.63;2.28;;;;;;;;;;5042351;28;20049;-78
2022/06/21 08:25:13;;;;;;;9.63;2.22;;;;;;;;;;5048705;28;20480;-79
2022/06/21 08:28:02;;;;;;;5.53;2.05;;;;;;;;;;5043892;28;20083;-77
2022/06/21 08:30:58;;;;;;;6.50;2.20;;;;;;;;;;5031868;28;20025;-68
2022/06/21 08:33:43;;;;;;;4.75;2.15;;;;;;;;;;5043949;28;20443;-67
2022/06/21 08:36:29;;;;;;;6.90;2.20;;;;;;;;;;5054902;28;20467;-68
2022/06/21 08:39:15;;;;;;;4.32;2.03;;;;;;;;;;5046916;28;20033;-72
2022/06/21 08:42:03;;;;;;;5.80;2.00;;;;;;;;;;5043571;28;20199;-71
2022/06/21 08:48:21;;;;;;;6.00;2.33;;;;;;;;;;5034068;28;20045;-74
2022/06/21 08:51:23;;;;;;;7.82;1.98;;;;;;;;;;5030979;28;20036;-73
2022/06/21 08:54:19;;;;;;;4.38;2.15;;;;;;;;;;5050019;28;20107;-76
2022/06/21 08:57:08;;;;;;;5.97;2.25;;;;;;;;;;5051879;28;20364;-72
2022/06/21 09:00:09;;;;;;;5.90;1.90;;;;;;;;;;5059198;28;20451;-73
2022/06/21 09:03:18;;;;;;;5.80;2.42;;;;;;;;;;5046916;28;20439;-75
2022/06/21 09:06:13;;;;;;;3.23;1.83;;;;;;;;;;5054183;28;20036;-75
2022/06/21 09:09:07;;;;;;;4.05;2.05;;;;;;;;;;5044489;28;20475;-78
2022/06/21 09:12:02;;;;;;;4.07;2.22;;;;;;;;;;5050265;28;20024;-73
2022/06/21 09:14:51;;;;;;;6.78;2.33;;;;;;;;;;5051775;28;20471;-73
2022/06/21 09:18:02;;;;;;;2.45;1.83;;;;;;;;;;5035069;28;20040;-73
2022/06/21 09:20:48;;;;;;;4.53;2.40;;;;;;;;;;5040973;28;20117;-73
2022/06/21 09:23:52;;;;;;;3.83;2.42;;;;;;;;;;5051268;28;20025;-73
2022/06/21 09:26:38;;;;;;;3.78;2.20;;;;;;;;;;5049225;28;20033;-67
2022/06/21 09:29:25;;;;;;;5.75;2.53;;;;;;;;;;5049850;28;20028;-72
2022/06/21 09:32:10;;;;;;;4.53;2.20;;;;;;;;;;5049119;28;20420;-74
2022/06/21 09:35:01;;;;;;;8.23;2.08;;;;;;;;;;5047826;28;20101;-74
2022/06/21 09:37:53;;;;;;;4.75;1.98;;;;;;;;;;5037311;28;20037;-74
2022/06/21 09:40:57;;;;;;;4.78;2.10;;;;;;;;;;5047687;28;20033;-73
2022/06/21 09:43:45;;;;;;;5.15;2.58;;;;;;;;;;5048631;28;20024;-73
2022/06/21 09:46:44;;;;;;;6.87;2.53;;;;;;;;;;5049022;28;20025;-74
2022/06/21 09:49:48;;;;;;;6.27;2.47;;;;;;;;;;5047896;28;20018;-75
2022/06/21 09:52:37;;;;;;;3.95;2.22;;;;;;;;;;5035875;28;20453;-76
2022/06/21 09:55:34;;;;;;;4.88;2.28;;;;;;;;;;5051623;28;20517;-76
2022/06/21 09:58:32;;;;;;;11.38;3.35;;;;;;;;;;5045030;28;20147;-75
2022/06/21 10:01:22;;;;;;;6.72;2.30;;;;;;;;;;5029108;28;20117;-75
2022/06/21 10:04:11;;;;;;;7.93;2.10;;;;;;;;;;5031658;28;20025;-62
2022/06/21 10:06:59;;;;;;;6.75;2.95;;;;;;;;;;5042488;28;20112;-68
2022/06/21 10:09:47;;;;;;;7.00;2.70;;;;;;;;;;5046503;28;20029;-74
2022/06/21 10:12:39;;;;;;;14.97;4.47;;;;;;;;;;5047902;28;20028;-69
2022/06/21 10:15:24;;;;;;;25.55;7.97;;;;;;;;;;5052987;28;20028;-69
2022/06/21 10:18:16;;;;;;;8.93;3.30;;;;;;;;;;5040071;28;20041;-78
2022/06/21 10:21:22;;;;;;;70.47;18.30;;;;;;;;;;5048228;28;20036;-73
2022/06/21 10:24:18;;;;;;;27.17;6.18;;;;;;;;;;5038820;28;20044;-62
2022/06/21 10:27:22;;;;;;;10.73;3.30;;;;;;;;;;5041993;28;20029;-63
2022/06/21 10:30:16;;;;;;;23.30;7.07;;;;;;;;;;5031383;28;20037;-64
2022/06/21 10:33:09;;;;;;;13.50;4.10;;;;;;;;;;5043997;28;20017;-66
2022/06/21 10:36:13;;;;;;;50.78;12.52;;;;;;;;;;5050860;28;20128;-62
2022/06/21 10:39:22;;;;;;;29.83;9.32;;;;;;;;;;5048513;28;20036;-70
2022/06/21 10:42:49;;;;;;;8.80;3.58;;;;;;;;;;5045913;28;20037;-67
2022/06/21 10:45:40;;;;;;;11.30;3.78;;;;;;;;;;5028614;28;20036;-67
2022/06/21 10:48:37;;;;;;;18.60;5.80;;;;;;;;;;5047765;28;20483;-67
2022/06/21 10:51:24;;;;;;;57.42;15.57;;;;;;;;;;5035864;28;20025;-67
2022/06/21 10:54:15;;;;;;;9.73;3.63;;;;;;;;;;5042993;28;20037;-70
2022/06/21 10:57:10;;;;;;;27.92;9.35;;;;;;;;;;5046282;28;20480;-71
2022/06/21 11:03:00;;;;;;;27.95;9.75;;;;;;;;;;5044437;28;20043;-60
2022/06/21 11:05:55;;;;;;;23.15;8.65;;;;;;;;;;5048387;28;20417;-60
2022/06/21 11:09:03;;;;;;;41.08;11.43;;;;;;;;;;5049718;28;20285;-62
2022/06/21 11:11:50;;;;;;;142.43;43.10;;;;;;;;;;5049837;28;20028;-61
2022/06/21 11:14:44;;;;;;;7.40;3.50;;;;;;;;;;5050398;28;20036;-62
2022/06/21 11:17:32;;;;;;;20.60;7.28;;;;;;;;;;5040580;28;20029;-62
2022/06/21 11:20:29;;;;;;;40.20;12.35;;;;;;;;;;5049219;28;20379;-64
2022/06/21 11:23:20;;;;;;;5.00;2.60;;;;;;;;;;5039999;28;20435;-63
2022/06/21 11:26:21;;;;;;;7.95;3.70;;;;;;;;;;5048489;28;20033;-66
2022/06/21 11:29:14;;;;;;;11.43;3.85;;;;;;;;;;5038434;28;20036;-66
2022/06/21 11:32:03;;;;;;;11.57;4.75;;;;;;;;;;5050370;28;20037;-65
2022/06/21 11:34:54;;;;;;;78.30;25.65;;;;;;;;;;5048873;28;20546;-64
2022/06/21 11:37:40;;;;;;;15.40;5.78;;;;;;;;;;5046083;28;20488;-75
2022/06/21 11:40:34;;;;;;;12.60;5.47;;;;;;;;;;5044898;28;20126;-73
2022/06/21 11:43:29;;;;;;;15.15;6.97;;;;;;;;;;5049532;28;20029;-72
2022/06/21 11:46:21;;;;;;;13.77;5.03;;;;;;;;;;5041404;28;20040;-71
2022/06/21 11:49:16;;;;;;;5.80;3.03;;;;;;;;;;5043391;28;20029;-71
2022/06/21 11:52:20;;;;;;;9.35;3.95;;;;;;;;;;5034913;28;20028;-66
2022/06/21 11:55:09;;;;;;;6.93;3.65;;;;;;;;;;5049872;28;20372;-67
2022/06/21 11:57:57;;;;;;;12.07;4.43;;;;;;;;;;5048547;28;20033;-67
2022/06/21 12:00:53;;;;;;;24.05;8.98;;;;;;;;;;5045334;28;20029;-61
2022/06/21 12:03:46;;;;;;;7.25;3.83;;;;;;;;;;5027740;28;20050;-62
2022/06/21 12:06:38;;;;;;;6.95;3.25;;;;;;;;;;5024688;28;20026;-62
2022/06/21 12:09:23;;;;;;;7.70;3.25;;;;;;;;;;5037907;28;20033;-62
2022/06/21 12:12:09;;;;;;;15.63;6.97;;;;;;;;;;5044680;28;20498;-67
2022/06/21 12:15:04;;;;;;;7.10;3.38;;;;;;;;;;5051614;28;20028;-66
2022/06/21 12:17:56;;;;;;;5.88;3.33;;;;;;;;;;5050951;28;20037;-67
2022/06/21 12:21:14;;;;;;;9.55;4.55;;;;;;;;;;5051852;28;20181;-66
2022/06/21 12:24:07;;;;;;;10.85;3.80;;;;;;;;;;5018081;28;20042;-67
2022/06/21 12:26:53;;;;;;;29.48;11.20;;;;;;;;;;5041435;28;20033;-65
2022/06/21 12:29:39;;;;;;;7.55;3.65;;;;;;;;;;5047903;28;20074;-62
2022/06/21 12:32:25;;;;;;;5.18;3.47;;;;;;;;;;5043925;28;21602;-62
2022/06/21 12:35:15;;;;;;;20.58;8.55;;;;;;;;;;5046293;28;20040;-62
2022/06/21 12:38:01;;;;;;;18.58;7.88;;;;;;;;;;5047039;28;20037;-63
2022/06/21 12:41:05;;;;;;;8.23;3.20;;;;;;;;;;5047377;28;20020;-65
2022/06/21 12:44:09;;;;;;;27.85;10.55;;;;;;;;;;5045773;28;20316;-63
2022/06/21 12:47:02;;;;;;;12.07;4.65;;;;;;;;;;5047959;28;20028;-65
2022/06/21 12:50:06;;;;;;;33.45;13.65;;;;;;;;;;5027148;28;20029;-71
2022/06/21 12:53:00;;;;;;;16.52;7.20;;;;;;;;;;5031227;28;20033;-61
2022/06/21 12:56:07;;;;;;;13.23;3.80;;;;;;;;;;5050043;28;20027;-61
2022/06/21 12:59:08;;;;;;;9.13;3.80;;;;;;;;;;5050030;28;20482;-60
2022/06/21 13:01:54;;;;;;;12.20;5.00;;;;;;;;;;5048438;28;20037;-60
2022/06/21 13:04:49;;;;;;;19.33;8.02;;;;;;;;;;5043903;28;20052;-60
2022/06/21 13:07:34;;;;;;;17.27;7.28;;;;;;;;;;5050079;28;20021;-74
2022/06/21 13:10:39;;;;;;;20.40;8.25;;;;;;;;;;5046151;28;20083;-62
2022/06/21 13:13:34;;;;;;;14.45;6.82;;;;;;;;;;5047522;28;20391;-62
2022/06/21 13:16:19;;;;;;;11.98;4.22;;;;;;;;;;5043727;28;20216;-62
2022/06/21 13:19:26;;;;;;;11.88;5.55;;;;;;;;;;5052321;28;20041;-61
2022/06/21 13:22:19;;;;;;;9.43;4.22;;;;;;;;;;5065240;28;20036;-61
2022/06/21 13:25:13;;;;;;;14.60;6.70;;;;;;;;;;5040553;28;20124;-63
2022/06/21 13:28:19;;;;;;;16.90;7.28;;;;;;;;;;5042339;28;20031;-60
2022/06/21 13:31:31;;;;;;;12.32;4.78;;;;;;;;;;5039494;28;20056;-59
2022/06/21 13:34:23;;;;;;;15.70;6.90;;;;;;;;;;5045082;28;20029;-58
2022/06/21 13:37:15;;;;;;;15.05;6.72;;;;;;;;;;5044993;28;20025;-68
2022/06/21 13:40:20;;;;;;;19.25;7.03;;;;;;;;;;5036798;28;20025;-61
2022/06/21 13:43:07;;;;;;;8.95;4.38;;;;;;;;;;5044597;28;20391;-62
2022/06/21 13:46:04;;;;;;;9.38;4.32;;;;;;;;;;5049783;28;20021;-57
2022/06/21 13:48:52;;;;;;;10.45;5.05;;;;;;;;;;5033183;28;20109;-59
2022/06/21 13:51:43;;;;;;;10.52;4.20;;;;;;;;;;5050422;28;20033;-57
2022/06/21 13:54:28;;;;;;;12.45;4.72;;;;;;;;;;5045593;28;20021;-53
2022/06/21 13:57:33;;;;;;;11.55;5.75;;;;;;;;;;5048400;28;20037;-54
2022/06/21 14:00:24;;;;;;;10.93;4.85;;;;;;;;;;5046037;28;20028;-54
2022/06/21 14:03:18;;;;;;;11.40;4.35;;;;;;;;;;5051566;28;20091;-63
2022/06/21 14:06:06;;;;;;;17.10;5.93;;;;;;;;;;5052480;28;20392;-71
2022/06/21 14:09:11;;;;;;;12.13;5.23;;;;;;;;;;5046664;28;20040;-71
2022/06/21 14:12:01;;;;;;;9.25;5.05;;;;;;;;;;5043967;28;20025;-73
2022/06/21 14:14:46;;;;;;;9.48;4.32;;;;;;;;;;5044845;28;20068;-69
2022/06/21 14:17:40;;;;;;;8.52;4.32;;;;;;;;;;5044751;28;20037;-67
2022/06/21 14:20:29;;;;;;;7.30;4.15;;;;;;;;;;5050956;28;20028;-61
2022/06/21 14:23:33;;;;;;;7.40;4.18;;;;;;;;;;5049675;28;20056;-61
2022/06/21 14:26:28;;;;;;;7.70;3.90;;;;;;;;;;5040368;28;20548;-61
2022/06/21 14:29:30;;;;;;;10.23;4.20;;;;;;;;;;5042669;28;20423;-60
2022/06/21 14:32:22;;;;;;;10.88;4.43;;;;;;;;;;5041895;28;20025;-59
2022/06/21 14:35:20;;;;;;;8.70;4.75;;;;;;;;;;5034118;28;20041;-60
2022/06/21 14:38:13;;;;;;;6.50;3.60;;;;;;;;;;5042911;28;20041;-55
2022/06/21 14:41:01;;;;;;;9.07;4.25;;;;;;;;;;5022727;28;20032;-55
2022/06/21 14:43:51;;;;;;;9.13;4.05;;;;;;;;;;5049048;28;20025;-59
2022/06/21 14:46:45;;;;;;;6.30;3.90;;;;;;;;;;5048574;28;20037;-59
2022/06/21 14:49:30;;;;;;;8.38;4.35;;;;;;;;;;5042629;28;20040;-57
2022/06/21 14:52:31;;;;;;;6.65;4.05;;;;;;;;;;5051053;28;20060;-59
2022/06/21 14:55:35;;;;;;;8.15;4.22;;;;;;;;;;5045910;28;20043;-58
2022/06/21 14:58:30;;;;;;;7.72;3.97;;;;;;;;;;5039754;28;20033;-61
2022/06/21 15:01:25;;;;;;;6.38;3.85;;;;;;;;;;5037459;28;20068;-65
2022/06/21 15:04:26;;;;;;;5.90;4.35;;;;;;;;;;5051076;28;20052;-65
2022/06/21 15:07:18;;;;;;;4.90;4.00;;;;;;;;;;5050318;28;20422;-68
2022/06/21 15:10:10;;;;;;;6.30;4.00;;;;;;;;;;5048706;28;20036;-65
2022/06/21 15:12:58;;;;;;;6.88;4.15;;;;;;;;;;5046128;28;20089;-64
2022/06/21 15:15:46;;;;;;;5.03;3.85;;;;;;;;;;5040271;28;20397;-59
2022/06/21 15:18:37;;;;;;;10.13;4.22;;;;;;;;;;5042508;28;20029;-58
2022/06/21 15:21:28;;;;;;;7.90;4.38;;;;;;;;;;5047583;28;20053;-58
2022/06/21 15:24:16;;;;;;;8.52;4.30;;;;;;;;;;5040726;28;20387;-59
2022/06/21 15:27:06;;;;;;;7.88;4.05;;;;;;;;;;5046804;28;20490;-63
2022/06/21 15:29:53;;;;;;;9.05;4.45;;;;;;;;;;5051383;28;20140;-60
2022/06/21 15:32:42;;;;;;;7.82;3.95;;;;;;;;;;5050653;28;20463;-61
2022/06/21 15:35:48;;;;;;;9.25;5.03;;;;;;;;;;5058695;28;20040;-59
2022/06/21 15:38:49;;;;;;;5.55;3.55;;;;;;;;;;5055872;28;20378;-59
2022/06/21 15:41:46;;;;;;;8.02;3.83;;;;;;;;;;5046758;28;20537;-62
2022/06/21 15:44:38;;;;;;;5.72;3.80;;;;;;;;;;5040532;28;20036;-60
2022/06/21 15:50:32;;;;;;;6.38;4.28;;;;;;;;;;5049395;28;20033;-60
2022/06/21 15:53:22;;;;;;;4.13;3.73;;;;;;;;;;5056806;28;20040;-68
2022/06/21 15:56:13;;;;;;;5.97;3.88;;;;;;;;;;5051192;28;20375;-61
2022/06/21 15:59:05;;;;;;;8.05;4.03;;;;;;;;;;5050399;28;20033;-61
2022/06/21 16:02:15;;;;;;;11.02;4.50;;;;;;;;;;5059999;28;20096;-62
2022/06/21 16:05:11;;;;;;;6.93;4.03;;;;;;;;;;5053101;28;20024;-61
2022/06/21 16:08:02;;;;;;;8.25;4.45;;;;;;;;;;5054027;28;20020;-61
2022/06/21 16:10:48;;;;;;;9.35;4.50;;;;;;;;;;5043411;28;20022;-56
2022/06/21 16:13:34;;;;;;;5.90;4.28;;;;;;;;;;5053144;28;20028;-70
2022/06/21 16:16:20;;;;;;;7.93;4.28;;;;;;;;;;5052214;28;20026;-71
2022/06/21 16:19:07;;;;;;;9.07;4.43;;;;;;;;;;5051646;28;20541;-70
2022/06/21 16:21:56;;;;;;;8.70;4.35;;;;;;;;;;5060367;28;20729;-71
2022/06/21 16:24:46;;;;;;;5.70;3.70;;;;;;;;;;5042763;28;20450;-69
2022/06/21 16:27:36;;;;;;;10.52;4.22;;;;;;;;;;5043617;28;20029;-71
2022/06/21 16:30:25;;;;;;;8.13;4.07;;;;;;;;;;5047063;28;20021;-60
2022/06/21 16:33:12;;;;;;;8.45;4.18;;;;;;;;;;5031625;28;20068;-63
2022/06/21 16:36:03;;;;;;;6.75;3.85;;;;;;;;;;5046847;28;20430;-62
2022/06/21 16:38:52;;;;;;;8.45;3.80;;;;;;;;;;5048850;28;20037;-61
2022/06/21 16:44:53;;;;;;;7.50;4.18;;;;;;;;;;5050172;28;20045;-60
2022/06/21 16:47:59;;;;;;;6.22;3.90;;;;;;;;;;5046926;28;20025;-58
2022/06/21 16:50:44;;;;;;;7.60;4.10;;;;;;;;;;5054061;28;20021;-70
2022/06/21 16:53:31;;;;;;;7.93;4.18;;;;;;;;;;5053707;28;20025;-70
2022/06/21 16:56:19;;;;;;;8.82;4.75;;;;;;;;;;5043214;28;20029;-73
2022/06/21 16:59:10;;;;;;;6.13;3.90;;;;;;;;;;5036702;28;20138;-68
2022/06/21 17:01:58;;;;;;;11.98;4.40;;;;;;;;;;5033279;28;20371;-68
2022/06/21 17:04:43;;;;;;;9.07;4.25;;;;;;;;;;5018735;28;20057;-80
2022/06/21 17:07:30;;;;;;;5.18;3.78;;;;;;;;;;5032480;28;20021;-67
2022/06/21 17:10:26;;;;;;;7.55;4.22;;;;;;;;;;5043907;28;20029;-73
2022/06/21 17:13:13;;;;;;;9.60;4.63;;;;;;;;;;5047004;28;20029;-69
2022/06/21 17:16:19;;;;;;;6.63;3.80;;;;;;;;;;5047157;28;20082;-71
2022/06/21 17:19:12;;;;;;;10.07;4.22;;;;;;;;;;5047070;28;20120;-70
2022/06/21 17:21:58;;;;;;;9.88;4.43;;;;;;;;;;5046688;28;20031;-69
2022/06/21 17:24:49;;;;;;;10.57;4.18;;;;;;;;;;5045361;28;20496;-64
2022/06/21 17:27:43;;;;;;;6.75;4.30;;;;;;;;;;5046551;28;20380;-61
2022/06/21 17:30:35;;;;;;;9.75;3.95;;;;;;;;;;5038775;28;20029;-63